Nashville, Tennessee
Traffic Map
Current Weather Conditions
Nashville, Tennessee
Overcast
Overcast
12°
Feels Like: 12°
Wind Chill: 12° Ceiling: 25000
Heat Index: 12° Visibility: 10mi
Dew Point: Wind: 0mph
Humidity: 69% Direction: ° ()
Pressure: 30.26in Gusts: 0mph
Raw Report DataKBNA 180853Z 00000KT 10SM FEW070 OVC250 12/07 A3026 RMK AO2 SLP245 T01220067 58006
Traffic Incident Summary
Active as of:
Severity:
Category:
InformationThere was an issue retrieving the traffic information for this location. Please try a different location or try again shortly.
Advertisements
At Last! Intellicast now available for iPhone and Android